sensor_id;sensor_type;location;lat;lon;timestamp;P1;durP1;ratioP1;P2;durP2;ratioP2
15673;SDS011;7937;48.090;16.212;2023-05-23T00:01:40;8.63;;;7.77;;
15673;SDS011;7937;48.090;16.212;2023-05-23T00:04:44;8.90;;;8.00;;
15673;SDS011;7937;48.090;16.212;2023-05-23T00:07:46;10.67;;;8.00;;
15673;SDS011;7937;48.090;16.212;2023-05-23T00:10:48;9.50;;;8.27;;
15673;SDS011;7937;48.090;16.212;2023-05-23T00:13:54;11.53;;;8.50;;
15673;SDS011;7937;48.090;16.212;2023-05-23T00:16:58;8.93;;;7.53;;
15673;SDS011;7937;48.090;16.212;2023-05-23T00:20:02;8.67;;;7.87;;
15673;SDS011;7937;48.090;16.212;2023-05-23T00:23:06;9.83;;;7.80;;
15673;SDS011;7937;48.090;16.212;2023-05-23T00:26:10;12.47;;;7.93;;
15673;SDS011;7937;48.090;16.212;2023-05-23T00:29:17;8.93;;;7.03;;
15673;SDS011;7937;48.090;16.212;2023-05-23T00:32:20;9.30;;;8.40;;
15673;SDS011;7937;48.090;16.212;2023-05-23T00:35:23;11.27;;;7.57;;
15673;SDS011;7937;48.090;16.212;2023-05-23T00:38:25;9.57;;;8.00;;
15673;SDS011;7937;48.090;16.212;2023-05-23T00:41:29;10.60;;;8.37;;
15673;SDS011;7937;48.090;16.212;2023-05-23T00:44:31;11.10;;;8.80;;
15673;SDS011;7937;48.090;16.212;2023-05-23T00:47:34;12.37;;;8.37;;
15673;SDS011;7937;48.090;16.212;2023-05-23T00:50:36;9.50;;;8.57;;
15673;SDS011;7937;48.090;16.212;2023-05-23T00:53:39;10.47;;;8.60;;
15673;SDS011;7937;48.090;16.212;2023-05-23T00:56:42;9.50;;;8.53;;
15673;SDS011;7937;48.090;16.212;2023-05-23T00:59:45;8.40;;;7.57;;
15673;SDS011;7937;48.090;16.212;2023-05-23T01:02:49;11.23;;;10.13;;
15673;SDS011;7937;48.090;16.212;2023-05-23T01:05:53;12.57;;;9.13;;
15673;SDS011;7937;48.090;16.212;2023-05-23T01:08:56;9.97;;;8.37;;
15673;SDS011;7937;48.090;16.212;2023-05-23T01:15:17;10.03;;;8.50;;
15673;SDS011;7937;48.090;16.212;2023-05-23T01:21:55;8.30;;;7.50;;
15673;SDS011;7937;48.090;16.212;2023-05-23T01:25:09;8.07;;;7.13;;
15673;SDS011;7937;48.090;16.212;2023-05-23T01:28:26;11.80;;;7.83;;
15673;SDS011;7937;48.090;16.212;2023-05-23T01:31:32;10.90;;;7.33;;
15673;SDS011;7937;48.090;16.212;2023-05-23T01:34:37;9.17;;;7.70;;
15673;SDS011;7937;48.090;16.212;2023-05-23T01:37:41;10.37;;;8.17;;
15673;SDS011;7937;48.090;16.212;2023-05-23T01:40:45;8.77;;;7.93;;
15673;SDS011;7937;48.090;16.212;2023-05-23T01:43:48;8.67;;;7.73;;
15673;SDS011;7937;48.090;16.212;2023-05-23T01:46:50;9.57;;;7.93;;
15673;SDS011;7937;48.090;16.212;2023-05-23T01:49:54;8.80;;;7.40;;
15673;SDS011;7937;48.090;16.212;2023-05-23T01:52:59;8.10;;;7.30;;
15673;SDS011;7937;48.090;16.212;2023-05-23T01:56:02;8.33;;;7.50;;
15673;SDS011;7937;48.090;16.212;2023-05-23T01:59:04;8.63;;;7.70;;
15673;SDS011;7937;48.090;16.212;2023-05-23T02:02:07;9.97;;;8.20;;
15673;SDS011;7937;48.090;16.212;2023-05-23T02:05:10;9.67;;;7.33;;
15673;SDS011;7937;48.090;16.212;2023-05-23T02:08:12;7.87;;;7.10;;
15673;SDS011;7937;48.090;16.212;2023-05-23T02:11:15;7.53;;;6.80;;
15673;SDS011;7937;48.090;16.212;2023-05-23T02:14:17;7.37;;;6.63;;
15673;SDS011;7937;48.090;16.212;2023-05-23T02:17:21;10.13;;;7.77;;
15673;SDS011;7937;48.090;16.212;2023-05-23T02:20:23;9.23;;;7.57;;
15673;SDS011;7937;48.090;16.212;2023-05-23T02:23:26;13.03;;;8.17;;
15673;SDS011;7937;48.090;16.212;2023-05-23T02:26:28;8.53;;;7.67;;
15673;SDS011;7937;48.090;16.212;2023-05-23T02:29:31;10.37;;;8.27;;
15673;SDS011;7937;48.090;16.212;2023-05-23T02:32:33;8.60;;;7.40;;
15673;SDS011;7937;48.090;16.212;2023-05-23T02:35:36;9.87;;;8.40;;
15673;SDS011;7937;48.090;16.212;2023-05-23T02:38:43;9.03;;;8.03;;
15673;SDS011;7937;48.090;16.212;2023-05-23T02:41:45;9.07;;;7.70;;
15673;SDS011;7937;48.090;16.212;2023-05-23T02:44:48;8.90;;;7.07;;
15673;SDS011;7937;48.090;16.212;2023-05-23T02:47:51;9.77;;;7.67;;
15673;SDS011;7937;48.090;16.212;2023-05-23T02:50:53;10.93;;;7.83;;
15673;SDS011;7937;48.090;16.212;2023-05-23T02:53:56;11.50;;;7.83;;
15673;SDS011;7937;48.090;16.212;2023-05-23T02:56:59;10.77;;;8.17;;
15673;SDS011;7937;48.090;16.212;2023-05-23T03:00:03;8.80;;;7.90;;
15673;SDS011;7937;48.090;16.212;2023-05-23T03:03:07;8.27;;;7.43;;
15673;SDS011;7937;48.090;16.212;2023-05-23T03:06:09;8.80;;;7.10;;
15673;SDS011;7937;48.090;16.212;2023-05-23T03:09:15;7.93;;;7.13;;
15673;SDS011;7937;48.090;16.212;2023-05-23T03:12:18;7.93;;;7.23;;
15673;SDS011;7937;48.090;16.212;2023-05-23T03:15:20;9.20;;;7.40;;
15673;SDS011;7937;48.090;16.212;2023-05-23T03:18:23;9.20;;;8.07;;
15673;SDS011;7937;48.090;16.212;2023-05-23T03:21:25;11.17;;;7.93;;
15673;SDS011;7937;48.090;16.212;2023-05-23T03:24:28;12.37;;;8.27;;
15673;SDS011;7937;48.090;16.212;2023-05-23T03:27:30;10.67;;;8.33;;
15673;SDS011;7937;48.090;16.212;2023-05-23T03:30:32;10.20;;;8.30;;
15673;SDS011;7937;48.090;16.212;2023-05-23T03:33:35;9.40;;;8.27;;
15673;SDS011;7937;48.090;16.212;2023-05-23T03:36:40;9.20;;;8.20;;
15673;SDS011;7937;48.090;16.212;2023-05-23T03:39:43;8.50;;;7.67;;
15673;SDS011;7937;48.090;16.212;2023-05-23T03:42:46;8.03;;;6.73;;
15673;SDS011;7937;48.090;16.212;2023-05-23T03:45:50;8.07;;;6.97;;
15673;SDS011;7937;48.090;16.212;2023-05-23T03:48:53;7.50;;;6.80;;
15673;SDS011;7937;48.090;16.212;2023-05-23T03:51:56;7.50;;;6.80;;
15673;SDS011;7937;48.090;16.212;2023-05-23T03:54:59;7.83;;;6.90;;
15673;SDS011;7937;48.090;16.212;2023-05-23T03:58:02;9.27;;;6.80;;
15673;SDS011;7937;48.090;16.212;2023-05-23T04:01:04;9.97;;;7.20;;
15673;SDS011;7937;48.090;16.212;2023-05-23T04:04:07;8.07;;;7.27;;
15673;SDS011;7937;48.090;16.212;2023-05-23T04:07:10;8.30;;;7.00;;
15673;SDS011;7937;48.090;16.212;2023-05-23T04:10:15;8.10;;;7.17;;
15673;SDS011;7937;48.090;16.212;2023-05-23T04:13:19;7.40;;;6.70;;
15673;SDS011;7937;48.090;16.212;2023-05-23T04:16:23;8.53;;;7.67;;
15673;SDS011;7937;48.090;16.212;2023-05-23T04:19:27;8.60;;;7.80;;
15673;SDS011;7937;48.090;16.212;2023-05-23T04:22:29;8.80;;;7.73;;
15673;SDS011;7937;48.090;16.212;2023-05-23T04:25:32;8.67;;;7.60;;
15673;SDS011;7937;48.090;16.212;2023-05-23T04:28:43;11.33;;;8.47;;
15673;SDS011;7937;48.090;16.212;2023-05-23T04:31:47;9.77;;;8.40;;
15673;SDS011;7937;48.090;16.212;2023-05-23T04:34:50;11.13;;;7.97;;
15673;SDS011;7937;48.090;16.212;2023-05-23T04:37:54;9.37;;;8.30;;
15673;SDS011;7937;48.090;16.212;2023-05-23T04:41:00;9.13;;;8.23;;
15673;SDS011;7937;48.090;16.212;2023-05-23T04:44:23;10.13;;;8.80;;
15673;SDS011;7937;48.090;16.212;2023-05-23T04:47:40;8.93;;;8.03;;
15673;SDS011;7937;48.090;16.212;2023-05-23T04:50:44;9.13;;;8.17;;
15673;SDS011;7937;48.090;16.212;2023-05-23T04:53:48;10.53;;;8.87;;
15673;SDS011;7937;48.090;16.212;2023-05-23T04:56:53;8.77;;;7.87;;
15673;SDS011;7937;48.090;16.212;2023-05-23T04:59:57;9.57;;;8.20;;
15673;SDS011;7937;48.090;16.212;2023-05-23T05:03:00;10.20;;;9.20;;
15673;SDS011;7937;48.090;16.212;2023-05-23T05:06:04;10.23;;;8.97;;
15673;SDS011;7937;48.090;16.212;2023-05-23T05:09:07;9.83;;;8.83;;
15673;SDS011;7937;48.090;16.212;2023-05-23T05:12:09;8.50;;;7.70;;
15673;SDS011;7937;48.090;16.212;2023-05-23T05:15:13;9.77;;;8.77;;
15673;SDS011;7937;48.090;16.212;2023-05-23T05:18:17;9.33;;;8.37;;
15673;SDS011;7937;48.090;16.212;2023-05-23T05:21:19;10.23;;;9.23;;
15673;SDS011;7937;48.090;16.212;2023-05-23T05:24:22;10.63;;;8.20;;
15673;SDS011;7937;48.090;16.212;2023-05-23T05:27:24;12.20;;;9.67;;
15673;SDS011;7937;48.090;16.212;2023-05-23T05:30:29;12.33;;;9.57;;
15673;SDS011;7937;48.090;16.212;2023-05-23T05:33:34;9.87;;;8.43;;
15673;SDS011;7937;48.090;16.212;2023-05-23T05:36:41;9.70;;;8.80;;
15673;SDS011;7937;48.090;16.212;2023-05-23T05:39:50;9.40;;;8.47;;
15673;SDS011;7937;48.090;16.212;2023-05-23T05:42:53;9.70;;;8.80;;
15673;SDS011;7937;48.090;16.212;2023-05-23T05:45:56;9.43;;;8.47;;
15673;SDS011;7937;48.090;16.212;2023-05-23T05:49:00;9.20;;;8.23;;
15673;SDS011;7937;48.090;16.212;2023-05-23T05:52:07;9.53;;;8.70;;
15673;SDS011;7937;48.090;16.212;2023-05-23T05:55:10;10.10;;;9.10;;
15673;SDS011;7937;48.090;16.212;2023-05-23T05:58:16;9.93;;;8.97;;
15673;SDS011;7937;48.090;16.212;2023-05-23T06:01:25;9.53;;;8.60;;
15673;SDS011;7937;48.090;16.212;2023-05-23T06:04:28;9.20;;;8.30;;
15673;SDS011;7937;48.090;16.212;2023-05-23T06:07:35;10.13;;;9.13;;
15673;SDS011;7937;48.090;16.212;2023-05-23T06:10:39;9.93;;;8.93;;
15673;SDS011;7937;48.090;16.212;2023-05-23T06:13:42;9.40;;;8.50;;
15673;SDS011;7937;48.090;16.212;2023-05-23T06:16:44;9.80;;;8.83;;
15673;SDS011;7937;48.090;16.212;2023-05-23T06:19:47;12.93;;;8.67;;
15673;SDS011;7937;48.090;16.212;2023-05-23T06:22:49;9.60;;;8.37;;
15673;SDS011;7937;48.090;16.212;2023-05-23T06:25:52;9.20;;;8.40;;
15673;SDS011;7937;48.090;16.212;2023-05-23T06:28:54;8.73;;;7.93;;
15673;SDS011;7937;48.090;16.212;2023-05-23T06:31:56;8.80;;;7.90;;
15673;SDS011;7937;48.090;16.212;2023-05-23T06:34:59;8.57;;;7.77;;
15673;SDS011;7937;48.090;16.212;2023-05-23T06:38:01;9.47;;;7.83;;
15673;SDS011;7937;48.090;16.212;2023-05-23T06:41:04;8.90;;;8.00;;
15673;SDS011;7937;48.090;16.212;2023-05-23T06:44:10;8.57;;;7.73;;
15673;SDS011;7937;48.090;16.212;2023-05-23T06:47:18;8.10;;;7.40;;
15673;SDS011;7937;48.090;16.212;2023-05-23T06:50:22;9.43;;;7.40;;
15673;SDS011;7937;48.090;16.212;2023-05-23T06:53:26;9.33;;;7.60;;
15673;SDS011;7937;48.090;16.212;2023-05-23T06:56:28;8.47;;;7.00;;
15673;SDS011;7937;48.090;16.212;2023-05-23T06:59:32;8.83;;;7.40;;
15673;SDS011;7937;48.090;16.212;2023-05-23T07:02:34;7.57;;;6.87;;
15673;SDS011;7937;48.090;16.212;2023-05-23T07:05:39;7.33;;;6.63;;
15673;SDS011;7937;48.090;16.212;2023-05-23T07:08:43;9.13;;;6.97;;
15673;SDS011;7937;48.090;16.212;2023-05-23T07:11:48;8.07;;;6.80;;
15673;SDS011;7937;48.090;16.212;2023-05-23T07:14:51;7.13;;;6.20;;
15673;SDS011;7937;48.090;16.212;2023-05-23T07:17:54;8.87;;;6.37;;
15673;SDS011;7937;48.090;16.212;2023-05-23T07:20:56;7.00;;;6.30;;
15673;SDS011;7937;48.090;16.212;2023-05-23T07:23:59;6.93;;;6.33;;
15673;SDS011;7937;48.090;16.212;2023-05-23T07:27:03;7.27;;;6.50;;
15673;SDS011;7937;48.090;16.212;2023-05-23T07:30:06;9.03;;;7.10;;
15673;SDS011;7937;48.090;16.212;2023-05-23T07:33:11;7.30;;;6.57;;
15673;SDS011;7937;48.090;16.212;2023-05-23T07:36:18;7.57;;;6.80;;
15673;SDS011;7937;48.090;16.212;2023-05-23T07:39:24;8.80;;;6.73;;
15673;SDS011;7937;48.090;16.212;2023-05-23T07:42:32;8.67;;;6.50;;
15673;SDS011;7937;48.090;16.212;2023-05-23T07:45:34;8.60;;;6.40;;
15673;SDS011;7937;48.090;16.212;2023-05-23T07:48:37;7.13;;;6.23;;
15673;SDS011;7937;48.090;16.212;2023-05-23T07:51:39;6.50;;;5.90;;
15673;SDS011;7937;48.090;16.212;2023-05-23T07:54:43;7.53;;;5.43;;
15673;SDS011;7937;48.090;16.212;2023-05-23T07:57:46;8.90;;;5.90;;
15673;SDS011;7937;48.090;16.212;2023-05-23T08:00:50;7.10;;;5.50;;
15673;SDS011;7937;48.090;16.212;2023-05-23T08:04:12;7.17;;;6.00;;
15673;SDS011;7937;48.090;16.212;2023-05-23T08:07:20;7.77;;;5.57;;
15673;SDS011;7937;48.090;16.212;2023-05-23T08:10:27;7.37;;;5.83;;
15673;SDS011;7937;48.090;16.212;2023-05-23T08:13:37;10.47;;;6.17;;
15673;SDS011;7937;48.090;16.212;2023-05-23T08:16:58;6.20;;;5.60;;
15673;SDS011;7937;48.090;16.212;2023-05-23T08:20:01;6.73;;;6.07;;
15673;SDS011;7937;48.090;16.212;2023-05-23T08:23:05;8.97;;;6.30;;
15673;SDS011;7937;48.090;16.212;2023-05-23T08:26:08;7.40;;;6.67;;
15673;SDS011;7937;48.090;16.212;2023-05-23T08:29:12;6.30;;;5.40;;
15673;SDS011;7937;48.090;16.212;2023-05-23T08:32:16;7.13;;;5.60;;
15673;SDS011;7937;48.090;16.212;2023-05-23T08:35:18;8.13;;;6.23;;
15673;SDS011;7937;48.090;16.212;2023-05-23T08:38:21;7.07;;;6.37;;
15673;SDS011;7937;48.090;16.212;2023-05-23T08:41:36;6.53;;;5.37;;
15673;SDS011;7937;48.090;16.212;2023-05-23T08:44:43;8.23;;;6.27;;
15673;SDS011;7937;48.090;16.212;2023-05-23T08:47:46;6.10;;;5.50;;
15673;SDS011;7937;48.090;16.212;2023-05-23T08:50:50;8.93;;;6.60;;
15673;SDS011;7937;48.090;16.212;2023-05-23T08:53:56;7.53;;;6.73;;
15673;SDS011;7937;48.090;16.212;2023-05-23T08:57:02;6.63;;;5.80;;
15673;SDS011;7937;48.090;16.212;2023-05-23T09:00:10;6.97;;;6.17;;
15673;SDS011;7937;48.090;16.212;2023-05-23T09:03:16;6.87;;;5.93;;
15673;SDS011;7937;48.090;16.212;2023-05-23T09:06:36;6.87;;;6.13;;
15673;SDS011;7937;48.090;16.212;2023-05-23T09:09:40;8.60;;;6.40;;
15673;SDS011;7937;48.090;16.212;2023-05-23T09:12:45;8.00;;;6.47;;
15673;SDS011;7937;48.090;16.212;2023-05-23T09:16:01;6.35;;;5.75;;
15673;SDS011;7937;48.090;16.212;2023-05-23T09:19:11;7.18;;;6.53;;
15673;SDS011;7937;48.090;16.212;2023-05-23T09:22:27;11.52;;;7.20;;
15673;SDS011;7937;48.090;16.212;2023-05-23T09:25:36;7.38;;;6.15;;
15673;SDS011;7937;48.090;16.212;2023-05-23T09:28:41;6.80;;;6.18;;
15673;SDS011;7937;48.090;16.212;2023-05-23T09:31:45;7.35;;;6.10;;
15673;SDS011;7937;48.090;16.212;2023-05-23T09:38:00;7.70;;;6.88;;
15673;SDS011;7937;48.090;16.212;2023-05-23T09:41:04;7.35;;;6.65;;
15673;SDS011;7937;48.090;16.212;2023-05-23T09:44:07;8.77;;;6.35;;
15673;SDS011;7937;48.090;16.212;2023-05-23T09:47:10;7.65;;;6.88;;
15673;SDS011;7937;48.090;16.212;2023-05-23T09:50:12;9.27;;;6.63;;
15673;SDS011;7937;48.090;16.212;2023-05-23T09:53:15;7.72;;;6.93;;
15673;SDS011;7937;48.090;16.212;2023-05-23T09:56:18;7.95;;;6.45;;
15673;SDS011;7937;48.090;16.212;2023-05-23T09:59:22;7.05;;;6.22;;
15673;SDS011;7937;48.090;16.212;2023-05-23T10:05:59;8.13;;;6.60;;
15673;SDS011;7937;48.090;16.212;2023-05-23T10:09:08;8.13;;;6.65;;
15673;SDS011;7937;48.090;16.212;2023-05-23T10:15:37;7.93;;;7.13;;
15673;SDS011;7937;48.090;16.212;2023-05-23T10:18:44;11.38;;;7.65;;
15673;SDS011;7937;48.090;16.212;2023-05-23T10:21:50;8.63;;;7.10;;
15673;SDS011;7937;48.090;16.212;2023-05-23T10:24:57;8.60;;;6.68;;
15673;SDS011;7937;48.090;16.212;2023-05-23T10:28:01;9.40;;;6.60;;
15673;SDS011;7937;48.090;16.212;2023-05-23T10:31:05;8.02;;;7.32;;
15673;SDS011;7937;48.090;16.212;2023-05-23T10:34:10;8.98;;;6.30;;
15673;SDS011;7937;48.090;16.212;2023-05-23T10:40:53;11.00;;;7.15;;
15673;SDS011;7937;48.090;16.212;2023-05-23T10:47:31;6.78;;;6.00;;
15673;SDS011;7937;48.090;16.212;2023-05-23T10:50:35;8.02;;;6.22;;
15673;SDS011;7937;48.090;16.212;2023-05-23T10:53:38;10.57;;;7.88;;
15673;SDS011;7937;48.090;16.212;2023-05-23T10:56:43;8.80;;;7.88;;
15673;SDS011;7937;48.090;16.212;2023-05-23T10:59:46;11.65;;;7.05;;
15673;SDS011;7937;48.090;16.212;2023-05-23T11:02:53;7.72;;;6.93;;
15673;SDS011;7937;48.090;16.212;2023-05-23T11:06:04;7.63;;;6.32;;
15673;SDS011;7937;48.090;16.212;2023-05-23T11:09:11;7.22;;;5.68;;
15673;SDS011;7937;48.090;16.212;2023-05-23T11:12:13;6.65;;;5.97;;
15673;SDS011;7937;48.090;16.212;2023-05-23T11:18:26;6.50;;;5.95;;
15673;SDS011;7937;48.090;16.212;2023-05-23T11:21:29;7.68;;;6.07;;
15673;SDS011;7937;48.090;16.212;2023-05-23T11:24:51;7.07;;;5.28;;
15673;SDS011;7937;48.090;16.212;2023-05-23T11:27:55;5.95;;;5.35;;
15673;SDS011;7937;48.090;16.212;2023-05-23T11:30:57;5.97;;;5.47;;
15673;SDS011;7937;48.090;16.212;2023-05-23T11:34:00;6.53;;;5.93;;
15673;SDS011;7937;48.090;16.212;2023-05-23T11:37:02;11.48;;;6.05;;
15673;SDS011;7937;48.090;16.212;2023-05-23T11:43:52;6.25;;;5.50;;
15673;SDS011;7937;48.090;16.212;2023-05-23T11:46:58;6.95;;;6.13;;
15673;SDS011;7937;48.090;16.212;2023-05-23T11:50:02;6.30;;;5.70;;
15673;SDS011;7937;48.090;16.212;2023-05-23T11:53:04;8.98;;;6.53;;
15673;SDS011;7937;48.090;16.212;2023-05-23T11:56:06;7.95;;;6.47;;
15673;SDS011;7937;48.090;16.212;2023-05-23T11:59:09;7.07;;;6.10;;
15673;SDS011;7937;48.090;16.212;2023-05-23T12:02:12;7.35;;;5.82;;
15673;SDS011;7937;48.090;16.212;2023-05-23T12:05:15;6.03;;;5.45;;
15673;SDS011;7937;48.090;16.212;2023-05-23T12:08:18;6.68;;;6.03;;
15673;SDS011;7937;48.090;16.212;2023-05-23T12:11:20;7.47;;;5.85;;
15673;SDS011;7937;48.090;16.212;2023-05-23T12:14:27;6.65;;;5.55;;
15673;SDS011;7937;48.090;16.212;2023-05-23T12:17:29;6.75;;;6.10;;
15673;SDS011;7937;48.090;16.212;2023-05-23T12:20:32;5.95;;;5.45;;
15673;SDS011;7937;48.090;16.212;2023-05-23T12:23:38;7.20;;;6.10;;
15673;SDS011;7937;48.090;16.212;2023-05-23T12:30:09;6.15;;;5.55;;
15673;SDS011;7937;48.090;16.212;2023-05-23T12:33:14;8.65;;;5.85;;
15673;SDS011;7937;48.090;16.212;2023-05-23T12:36:23;7.13;;;6.43;;
15673;SDS011;7937;48.090;16.212;2023-05-23T12:39:29;6.00;;;5.38;;
15673;SDS011;7937;48.090;16.212;2023-05-23T12:42:42;7.78;;;5.90;;
15673;SDS011;7937;48.090;16.212;2023-05-23T12:45:50;7.32;;;5.70;;
15673;SDS011;7937;48.090;16.212;2023-05-23T12:48:53;6.72;;;6.00;;
15673;SDS011;7937;48.090;16.212;2023-05-23T12:51:56;6.68;;;5.45;;
15673;SDS011;7937;48.090;16.212;2023-05-23T12:54:58;6.68;;;5.90;;
15673;SDS011;7937;48.090;16.212;2023-05-23T12:58:01;6.68;;;6.05;;
15673;SDS011;7937;48.090;16.212;2023-05-23T13:01:03;6.45;;;5.78;;
15673;SDS011;7937;48.090;16.212;2023-05-23T13:04:06;7.15;;;6.45;;
15673;SDS011;7937;48.090;16.212;2023-05-23T13:07:09;6.85;;;6.25;;
15673;SDS011;7937;48.090;16.212;2023-05-23T13:10:11;8.57;;;5.82;;
15673;SDS011;7937;48.090;16.212;2023-05-23T13:13:14;7.57;;;6.18;;
15673;SDS011;7937;48.090;16.212;2023-05-23T13:16:16;8.75;;;6.68;;
15673;SDS011;7937;48.090;16.212;2023-05-23T13:19:19;6.93;;;5.57;;
15673;SDS011;7937;48.090;16.212;2023-05-23T13:22:22;6.90;;;6.18;;
15673;SDS011;7937;48.090;16.212;2023-05-23T13:25:24;8.18;;;7.20;;
15673;SDS011;7937;48.090;16.212;2023-05-23T13:28:27;6.93;;;6.28;;
15673;SDS011;7937;48.090;16.212;2023-05-23T13:31:30;6.78;;;6.10;;
15673;SDS011;7937;48.090;16.212;2023-05-23T13:34:32;7.05;;;6.35;;
15673;SDS011;7937;48.090;16.212;2023-05-23T13:37:38;7.40;;;6.68;;
15673;SDS011;7937;48.090;16.212;2023-05-23T13:40:40;6.78;;;6.10;;
15673;SDS011;7937;48.090;16.212;2023-05-23T13:43:43;9.07;;;7.22;;
15673;SDS011;7937;48.090;16.212;2023-05-23T13:46:45;9.60;;;6.57;;
15673;SDS011;7937;48.090;16.212;2023-05-23T13:49:48;8.05;;;7.22;;
15673;SDS011;7937;48.090;16.212;2023-05-23T13:52:51;8.63;;;7.75;;
15673;SDS011;7937;48.090;16.212;2023-05-23T13:55:53;9.75;;;7.78;;
15673;SDS011;7937;48.090;16.212;2023-05-23T13:58:56;9.82;;;8.43;;
15673;SDS011;7937;48.090;16.212;2023-05-23T14:01:58;8.70;;;7.80;;
15673;SDS011;7937;48.090;16.212;2023-05-23T14:05:00;10.80;;;8.05;;
15673;SDS011;7937;48.090;16.212;2023-05-23T14:08:03;8.63;;;7.13;;
15673;SDS011;7937;48.090;16.212;2023-05-23T14:11:06;7.45;;;6.75;;
15673;SDS011;7937;48.090;16.212;2023-05-23T14:14:09;7.82;;;7.03;;
15673;SDS011;7937;48.090;16.212;2023-05-23T14:17:14;7.30;;;6.65;;
15673;SDS011;7937;48.090;16.212;2023-05-23T14:20:20;6.80;;;6.20;;
15673;SDS011;7937;48.090;16.212;2023-05-23T14:23:23;8.40;;;6.60;;
15673;SDS011;7937;48.090;16.212;2023-05-23T14:26:25;6.43;;;5.87;;
15673;SDS011;7937;48.090;16.212;2023-05-23T14:29:28;7.33;;;6.27;;
15673;SDS011;7937;48.090;16.212;2023-05-23T14:32:31;8.87;;;6.10;;
15673;SDS011;7937;48.090;16.212;2023-05-23T14:35:39;8.27;;;6.60;;
15673;SDS011;7937;48.090;16.212;2023-05-23T14:38:44;7.70;;;6.90;;
15673;SDS011;7937;48.090;16.212;2023-05-23T14:41:46;16.60;;;7.70;;
15673;SDS011;7937;48.090;16.212;2023-05-23T14:44:49;8.90;;;8.00;;
15673;SDS011;7937;48.090;16.212;2023-05-23T14:47:51;12.03;;;7.77;;
15673;SDS011;7937;48.090;16.212;2023-05-23T14:50:54;8.67;;;7.87;;
15673;SDS011;7937;48.090;16.212;2023-05-23T14:53:57;10.27;;;8.70;;
15673;SDS011;7937;48.090;16.212;2023-05-23T14:57:01;11.40;;;7.63;;
15673;SDS011;7937;48.090;16.212;2023-05-23T15:00:05;9.73;;;8.53;;
15673;SDS011;7937;48.090;16.212;2023-05-23T15:03:08;7.77;;;7.00;;
15673;SDS011;7937;48.090;16.212;2023-05-23T15:06:11;11.60;;;8.23;;
15673;SDS011;7937;48.090;16.212;2023-05-23T15:09:13;7.83;;;7.10;;
15673;SDS011;7937;48.090;16.212;2023-05-23T15:12:16;9.37;;;6.23;;
15673;SDS011;7937;48.090;16.212;2023-05-23T15:15:18;8.03;;;6.77;;
15673;SDS011;7937;48.090;16.212;2023-05-23T15:18:23;7.93;;;6.87;;
15673;SDS011;7937;48.090;16.212;2023-05-23T15:21:42;8.70;;;6.87;;
15673;SDS011;7937;48.090;16.212;2023-05-23T15:24:51;9.73;;;6.80;;
15673;SDS011;7937;48.090;16.212;2023-05-23T15:27:54;10.37;;;7.23;;
15673;SDS011;7937;48.090;16.212;2023-05-23T15:30:57;8.63;;;7.67;;
15673;SDS011;7937;48.090;16.212;2023-05-23T15:34:00;8.90;;;7.40;;
15673;SDS011;7937;48.090;16.212;2023-05-23T15:37:02;7.07;;;6.37;;
15673;SDS011;7937;48.090;16.212;2023-05-23T15:40:05;12.73;;;6.97;;
15673;SDS011;7937;48.090;16.212;2023-05-23T15:43:07;9.87;;;7.30;;
15673;SDS011;7937;48.090;16.212;2023-05-23T15:46:10;8.43;;;6.77;;
15673;SDS011;7937;48.090;16.212;2023-05-23T15:49:12;7.60;;;6.90;;
15673;SDS011;7937;48.090;16.212;2023-05-23T15:52:27;8.27;;;5.70;;
15673;SDS011;7937;48.090;16.212;2023-05-23T15:55:29;6.50;;;5.90;;
15673;SDS011;7937;48.090;16.212;2023-05-23T15:58:31;7.00;;;6.10;;
15673;SDS011;7937;48.090;16.212;2023-05-23T16:01:33;6.80;;;5.37;;
15673;SDS011;7937;48.090;16.212;2023-05-23T16:04:36;6.17;;;5.63;;
15673;SDS011;7937;48.090;16.212;2023-05-23T16:07:39;6.80;;;6.10;;
15673;SDS011;7937;48.090;16.212;2023-05-23T16:10:42;7.40;;;6.70;;
15673;SDS011;7937;48.090;16.212;2023-05-23T16:13:44;8.20;;;6.10;;
15673;SDS011;7937;48.090;16.212;2023-05-23T16:16:47;7.53;;;6.83;;
15673;SDS011;7937;48.090;16.212;2023-05-23T16:19:50;7.73;;;6.63;;
15673;SDS011;7937;48.090;16.212;2023-05-23T16:22:52;12.03;;;6.40;;
15673;SDS011;7937;48.090;16.212;2023-05-23T16:25:54;6.90;;;5.20;;
15673;SDS011;7937;48.090;16.212;2023-05-23T16:28:57;5.60;;;5.07;;
15673;SDS011;7937;48.090;16.212;2023-05-23T16:31:59;8.30;;;5.30;;
15673;SDS011;7937;48.090;16.212;2023-05-23T16:35:01;6.73;;;5.67;;
15673;SDS011;7937;48.090;16.212;2023-05-23T16:38:03;5.63;;;5.07;;
15673;SDS011;7937;48.090;16.212;2023-05-23T16:41:06;6.00;;;5.50;;
15673;SDS011;7937;48.090;16.212;2023-05-23T16:44:08;7.97;;;5.67;;
15673;SDS011;7937;48.090;16.212;2023-05-23T16:47:11;6.40;;;4.97;;
15673;SDS011;7937;48.090;16.212;2023-05-23T16:50:14;5.63;;;5.13;;
15673;SDS011;7937;48.090;16.212;2023-05-23T16:53:16;6.47;;;5.77;;
15673;SDS011;7937;48.090;16.212;2023-05-23T16:56:18;5.97;;;5.37;;
15673;SDS011;7937;48.090;16.212;2023-05-23T16:59:22;5.93;;;5.37;;
15673;SDS011;7937;48.090;16.212;2023-05-23T17:02:24;7.53;;;5.60;;
15673;SDS011;7937;48.090;16.212;2023-05-23T17:05:27;6.33;;;5.47;;
15673;SDS011;7937;48.090;16.212;2023-05-23T17:08:29;6.37;;;5.77;;
15673;SDS011;7937;48.090;16.212;2023-05-23T17:11:31;5.80;;;5.27;;
15673;SDS011;7937;48.090;16.212;2023-05-23T17:14:34;5.97;;;5.00;;
15673;SDS011;7937;48.090;16.212;2023-05-23T17:17:36;7.20;;;5.40;;
15673;SDS011;7937;48.090;16.212;2023-05-23T17:20:39;8.47;;;5.37;;
15673;SDS011;7937;48.090;16.212;2023-05-23T17:23:41;6.80;;;5.77;;
15673;SDS011;7937;48.090;16.212;2023-05-23T17:26:43;9.57;;;6.83;;
15673;SDS011;7937;48.090;16.212;2023-05-23T17:29:46;6.73;;;6.00;;
15673;SDS011;7937;48.090;16.212;2023-05-23T17:32:48;6.63;;;6.03;;
15673;SDS011;7937;48.090;16.212;2023-05-23T17:35:50;7.57;;;6.87;;
15673;SDS011;7937;48.090;16.212;2023-05-23T17:38:52;7.87;;;6.90;;
15673;SDS011;7937;48.090;16.212;2023-05-23T17:41:55;8.50;;;7.60;;
15673;SDS011;7937;48.090;16.212;2023-05-23T17:44:57;7.13;;;6.43;;
15673;SDS011;7937;48.090;16.212;2023-05-23T17:47:59;9.00;;;7.43;;
15673;SDS011;7937;48.090;16.212;2023-05-23T17:51:04;7.43;;;6.70;;
15673;SDS011;7937;48.090;16.212;2023-05-23T17:54:06;9.00;;;6.93;;
15673;SDS011;7937;48.090;16.212;2023-05-23T17:57:09;7.77;;;6.97;;
15673;SDS011;7937;48.090;16.212;2023-05-23T18:00:12;7.13;;;6.40;;
15673;SDS011;7937;48.090;16.212;2023-05-23T18:03:14;8.53;;;6.50;;
15673;SDS011;7937;48.090;16.212;2023-05-23T18:06:16;9.57;;;6.23;;
15673;SDS011;7937;48.090;16.212;2023-05-23T18:09:19;7.40;;;6.70;;
15673;SDS011;7937;48.090;16.212;2023-05-23T18:12:21;6.90;;;6.23;;
15673;SDS011;7937;48.090;16.212;2023-05-23T18:15:24;7.47;;;6.27;;
15673;SDS011;7937;48.090;16.212;2023-05-23T18:18:27;7.50;;;6.47;;
15673;SDS011;7937;48.090;16.212;2023-05-23T18:21:29;6.70;;;6.00;;
15673;SDS011;7937;48.090;16.212;2023-05-23T18:24:32;7.40;;;6.60;;
15673;SDS011;7937;48.090;16.212;2023-05-23T18:27:35;7.70;;;6.37;;
15673;SDS011;7937;48.090;16.212;2023-05-23T18:30:38;8.20;;;7.37;;
15673;SDS011;7937;48.090;16.212;2023-05-23T18:33:40;7.67;;;6.97;;
15673;SDS011;7937;48.090;16.212;2023-05-23T18:36:43;7.87;;;7.00;;
15673;SDS011;7937;48.090;16.212;2023-05-23T18:39:45;8.40;;;7.60;;
15673;SDS011;7937;48.090;16.212;2023-05-23T18:42:48;9.50;;;7.77;;
15673;SDS011;7937;48.090;16.212;2023-05-23T18:45:51;8.90;;;8.00;;
15673;SDS011;7937;48.090;16.212;2023-05-23T18:48:53;8.63;;;7.73;;
15673;SDS011;7937;48.090;16.212;2023-05-23T18:51:57;9.13;;;8.00;;
15673;SDS011;7937;48.090;16.212;2023-05-23T18:55:00;9.23;;;7.57;;
15673;SDS011;7937;48.090;16.212;2023-05-23T18:58:02;8.73;;;7.83;;
15673;SDS011;7937;48.090;16.212;2023-05-23T19:01:04;9.00;;;8.10;;